Time;durP1;ratioP1;P1;durP2;ratioP2;P2;SDS_P1;SDS_P2;PMS_P1;PMS_P2;Temp;Humidity;BMP_temperature;BMP_pressure;BME280_temperature;BME280_humidity;BME280_pressure;Samples;Min_cycle;Max_cycle;Signal;HPM_P1;HPM_P2
2022/03/18 00:01:24;;;;;;;6.90;2.42;;;27.20;99.90;;;;;;5067823;28;20421;-82
2022/03/18 00:03:52;;;;;;;8.80;2.80;;;27.30;99.90;;;;;;5067975;28;20743;-84
2022/03/18 00:06:19;;;;;;;7.43;2.30;;;27.50;99.90;;;;;;5067687;28;20398;-78
2022/03/18 00:08:49;;;;;;;8.10;2.60;;;27.70;99.90;;;;;;5067656;28;20370;-82
2022/03/18 00:11:16;;;;;;;10.45;2.50;;;27.90;99.90;;;;;;5068052;28;20378;-85
2022/03/18 00:13:42;;;;;;;9.40;2.60;;;27.80;99.70;;;;;;5067852;28;20792;-85
2022/03/18 00:16:09;;;;;;;8.90;2.40;;;27.40;99.90;;;;;;5067738;28;20454;-84
2022/03/18 00:18:36;;;;;;;8.50;2.63;;;27.00;99.90;;;;;;5067745;28;20431;-79
2022/03/18 00:21:06;;;;;;;10.27;2.67;;;26.70;99.90;;;;;;5067193;28;20402;-85
2022/03/18 00:23:34;;;;;;;10.15;2.88;;;26.80;99.90;;;;;;5067287;28;20854;-82
2022/03/18 00:26:01;;;;;;;8.35;2.60;;;26.60;99.90;;;;;;5067501;28;20796;-83
2022/03/18 00:28:29;;;;;;;8.35;2.78;;;26.40;99.90;;;;;;5067364;28;20428;-82
2022/03/18 00:30:57;;;;;;;8.43;2.70;;;26.40;99.90;;;;;;5067198;28;20398;-80
2022/03/18 00:33:25;;;;;;;9.43;2.83;;;26.30;99.90;;;;;;5067519;28;20409;-84
2022/03/18 00:35:52;;;;;;;7.18;2.80;;;26.40;99.90;;;;;;5066989;28;20454;-83
2022/03/18 00:38:19;;;;;;;8.15;3.00;;;26.40;99.90;;;;;;5067353;28;20384;-82
2022/03/18 00:40:48;;;;;;;12.32;3.33;;;26.30;99.90;;;;;;5067236;28;20403;-76
2022/03/18 00:43:16;;;;;;;10.65;2.83;;;26.30;99.90;;;;;;5067339;28;20377;-84
2022/03/18 00:45:43;;;;;;;9.57;2.70;;;26.60;99.90;;;;;;5066763;28;20368;-78
2022/03/18 00:53:41;;;;;;;13.15;2.90;;;26.90;99.90;;;;;;5067017;28;20473;-79
2022/03/18 00:56:08;;;;;;;8.65;2.80;;;27.10;99.90;;;;;;5066786;28;20418;-86
2022/03/18 00:58:35;;;;;;;8.82;2.70;;;27.10;99.90;;;;;;5066961;28;20374;-80
2022/03/18 01:01:02;;;;;;;8.38;2.95;;;27.40;99.90;;;;;;5066733;28;20410;-79
2022/03/18 01:03:29;;;;;;;12.98;2.72;;;27.70;99.90;;;;;;5048909;28;20739;-84
2022/03/18 01:05:56;;;;;;;8.07;2.83;;;27.90;99.90;;;;;;5066711;28;20380;-84
2022/03/18 01:08:23;;;;;;;11.73;2.90;;;27.80;99.90;;;;;;5066881;28;20378;-85
2022/03/18 01:10:50;;;;;;;8.63;2.83;;;27.40;99.90;;;;;;5066951;28;20380;-83
2022/03/18 01:13:17;;;;;;;10.60;3.10;;;27.00;99.90;;;;;;5066941;28;20498;-85
2022/03/18 01:15:44;;;;;;;9.50;2.75;;;26.50;99.90;;;;;;5066418;28;20389;-84
2022/03/18 01:18:11;;;;;;;10.50;3.03;;;26.70;99.90;;;;;;5066235;28;20378;-84
2022/03/18 01:20:38;;;;;;;8.27;2.80;;;27.20;99.90;;;;;;5066550;28;20372;-77
2022/03/18 01:23:06;;;;;;;11.35;2.83;;;27.60;99.90;;;;;;5066491;28;20386;-79
2022/03/18 01:25:36;;;;;;;11.32;2.75;;;27.80;99.90;;;;;;5066600;28;20444;-83
2022/03/18 01:28:06;;;;;;;9.05;2.80;;;27.90;99.90;;;;;;5067063;28;20402;-87
2022/03/18 01:30:34;;;;;;;8.68;2.80;;;27.60;99.90;;;;;;5066774;28;20464;-86
2022/03/18 01:33:01;;;;;;;9.20;2.90;;;27.20;99.90;;;;;;5066838;28;20465;-86
2022/03/18 01:35:29;;;;;;;8.18;2.63;;;27.20;99.90;;;;;;5066581;28;20877;-85
2022/03/18 01:37:56;;;;;;;9.43;2.80;;;27.30;99.90;;;;;;5066609;28;20862;-85
2022/03/18 01:40:23;;;;;;;7.80;2.30;;;27.60;99.90;;;;;;5067015;28;20386;-85
2022/03/18 01:42:50;;;;;;;7.05;2.63;;;28.00;99.90;;;;;;5069297;28;20429;-80
2022/03/18 01:45:17;;;;;;;6.28;2.40;;;28.60;99.20;;;;;;5070635;28;20389;-80
2022/03/18 01:47:44;;;;;;;8.38;2.88;;;29.20;96.50;;;;;;5070469;28;20386;-87
2022/03/18 01:50:13;;;;;;;7.72;2.47;;;29.40;93.90;;;;;;5070588;28;20378;-85
2022/03/18 01:52:41;;;;;;;11.90;2.83;;;29.50;94.20;;;;;;5070594;28;20409;-78
2022/03/18 01:55:08;;;;;;;9.50;2.60;;;29.10;93.10;;;;;;5070703;28;20382;-85
2022/03/18 01:57:35;;;;;;;10.75;2.78;;;28.40;94.70;;;;;;5070561;28;20391;-79
2022/03/18 02:00:05;;;;;;;13.50;3.45;;;27.70;96.50;;;;;;5070751;28;20438;-79
2022/03/18 02:02:32;;;;;;;12.75;3.30;;;27.40;97.70;;;;;;5052594;28;20976;-83
2022/03/18 02:04:59;;;;;;;9.18;3.08;;;27.40;98.10;;;;;;5070614;28;20412;-84
2022/03/18 02:07:26;;;;;;;15.30;3.70;;;28.00;98.30;;;;;;5072290;28;20374;-80
2022/03/18 02:09:53;;;;;;;20.58;3.90;;;29.10;97.60;;;;;;5079267;28;20381;-82
2022/03/18 02:12:20;;;;;;;18.77;3.75;;;30.50;92.00;;;;;;5077864;28;20378;-85
2022/03/18 02:14:48;;;;;;;17.27;4.03;;;31.40;83.90;;;;;;5075156;28;21275;-77
2022/03/18 02:17:18;;;;;;;13.80;3.00;;;31.60;82.20;;;;;;5070580;28;20487;-87
2022/03/18 02:19:47;;;;;;;11.68;2.78;;;31.00;82.00;;;;;;5070434;28;20370;-80
2022/03/18 02:22:25;;;;;;;10.30;3.10;;;29.70;86.40;;;;;;5052166;28;20492;-86
2022/03/18 02:24:54;;;;;;;11.40;2.70;;;29.10;87.40;;;;;;5070222;28;20374;-84
2022/03/18 02:27:22;;;;;;;8.60;2.88;;;29.50;90.40;;;;;;5069931;28;20431;-78
2022/03/18 02:29:49;;;;;;;7.10;2.38;;;30.60;83.00;;;;;;5069947;28;20396;-86
2022/03/18 02:32:19;;;;;;;6.70;2.50;;;30.60;81.00;;;;;;5069892;28;20390;-86
2022/03/18 02:34:46;;;;;;;7.90;2.60;;;30.90;81.00;;;;;;5069682;28;20438;-87
2022/03/18 02:37:13;;;;;;;7.18;2.60;;;31.40;80.60;;;;;;5070033;28;20374;-88
2022/03/18 02:39:40;;;;;;;6.60;2.60;;;31.40;76.30;;;;;;5069839;28;20441;-83
2022/03/18 02:42:08;;;;;;;6.25;2.35;;;31.60;77.20;;;;;;5069309;28;20444;-79
2022/03/18 02:44:35;;;;;;;5.70;2.50;;;32.00;75.50;;;;;;5069605;28;20378;-84
2022/03/18 02:47:02;;;;;;;7.50;2.50;;;32.60;74.60;;;;;;5069631;28;20371;-80
2022/03/18 02:49:29;;;;;;;9.23;3.13;;;33.20;67.30;;;;;;5069760;28;20397;-79
2022/03/18 02:51:56;;;;;;;7.57;3.40;;;33.80;67.60;;;;;;5069357;28;20390;-77
2022/03/18 02:54:23;;;;;;;6.97;2.92;;;34.30;64.50;;;;;;5069130;28;20413;-85
2022/03/18 02:56:50;;;;;;;6.40;2.50;;;34.60;61.00;;;;;;5069303;28;20382;-85
2022/03/18 02:59:18;;;;;;;5.97;2.40;;;34.60;58.40;;;;;;5069577;28;20853;-77
2022/03/18 03:01:45;;;;;;;9.30;3.70;;;33.80;62.10;;;;;;5069436;28;20798;-83
2022/03/18 03:04:13;;;;;;;8.02;2.60;;;34.10;61.10;;;;;;5069350;28;20373;-86
2022/03/18 03:09:25;;;;;;;6.65;2.20;;;35.00;58.10;;;;;;5069211;28;20744;-84
2022/03/18 03:11:52;;;;;;;6.30;2.33;;;34.60;57.40;;;;;;5069326;28;20375;-85
2022/03/18 03:14:19;;;;;;;10.20;3.08;;;34.30;58.50;;;;;;5068968;28;20362;-87
2022/03/18 03:16:46;;;;;;;5.30;2.42;;;33.90;58.40;;;;;;5068918;28;20453;-84
2022/03/18 03:19:14;;;;;;;6.38;2.50;;;34.20;59.40;;;;;;5051068;28;20374;-85
2022/03/18 03:21:41;;;;;;;4.97;2.38;;;35.30;57.20;;;;;;5068951;28;20873;-85
2022/03/18 03:24:08;;;;;;;7.35;2.28;;;35.60;55.20;;;;;;5068946;28;20378;-77
2022/03/18 03:26:35;;;;;;;14.82;2.88;;;35.90;54.60;;;;;;5068846;28;20442;-86
2022/03/18 03:29:03;;;;;;;7.25;2.30;;;36.00;54.20;;;;;;5068673;28;20406;-82
2022/03/18 03:31:29;;;;;;;5.60;2.20;;;36.00;54.90;;;;;;5068620;28;20504;-83
2022/03/18 03:33:56;;;;;;;5.22;2.28;;;36.50;54.00;;;;;;5068676;28;20775;-77
2022/03/18 03:36:23;;;;;;;7.82;2.55;;;36.40;52.90;;;;;;5068368;28;20450;-77
2022/03/18 03:38:50;;;;;;;5.75;2.40;;;35.90;54.50;;;;;;5069010;28;20382;-82
2022/03/18 03:41:22;;;;;;;8.32;2.28;;;35.00;55.70;;;;;;5068435;28;20402;-84
2022/03/18 03:43:50;;;;;;;7.28;2.30;;;34.50;56.10;;;;;;5068310;28;20735;-81
2022/03/18 03:46:17;;;;;;;6.60;2.33;;;34.20;57.60;;;;;;5050582;28;20400;-79
2022/03/18 03:48:44;;;;;;;6.00;2.33;;;34.20;56.80;;;;;;5068424;28;20402;-85
2022/03/18 03:51:14;;;;;;;4.72;2.00;;;33.90;57.20;;;;;;5068148;28;20477;-82
2022/03/18 03:53:41;;;;;;;5.22;2.10;;;33.60;58.10;;;;;;5068154;28;20884;-81
2022/03/18 03:56:08;;;;;;;5.30;2.10;;;33.70;59.40;;;;;;5068344;28;20425;-83
2022/03/18 03:58:35;;;;;;;6.53;2.20;;;34.90;53.60;;;;;;5068370;28;20738;-84
2022/03/18 04:01:02;;;;;;;4.30;1.90;;;35.60;54.70;;;;;;5067715;28;20963;-84
2022/03/18 04:03:28;;;;;;;5.07;2.03;;;35.60;54.20;;;;;;5068113;28;20544;-86
2022/03/18 04:05:55;;;;;;;5.10;1.80;;;35.10;54.70;;;;;;5067475;28;20759;-82
2022/03/18 04:08:22;;;;;;;5.88;2.20;;;34.60;54.90;;;;;;5068261;28;20370;-78
2022/03/18 04:10:49;;;;;;;5.35;2.00;;;33.80;55.70;;;;;;5067920;28;20374;-78
2022/03/18 04:13:16;;;;;;;4.93;2.28;;;33.20;56.30;;;;;;5067769;28;20378;-83
2022/03/18 04:15:43;;;;;;;5.25;2.00;;;33.70;56.70;;;;;;5067372;28;20390;-84
2022/03/18 04:18:10;;;;;;;4.80;2.00;;;34.00;55.50;;;;;;5067572;28;20447;-78
2022/03/18 04:20:37;;;;;;;4.15;2.00;;;33.50;56.50;;;;;;5067829;28;20421;-84
2022/03/18 04:23:04;;;;;;;5.10;2.00;;;33.10;57.10;;;;;;5067823;28;20382;-78
2022/03/18 04:25:31;;;;;;;4.85;2.08;;;32.60;58.50;;;;;;5067828;28;20378;-84
2022/03/18 04:27:59;;;;;;;4.53;1.80;;;32.20;59.40;;;;;;5067403;28;20386;-84
2022/03/18 04:30:26;;;;;;;5.35;1.85;;;31.90;59.80;;;;;;5067376;28;20366;-83
2022/03/18 04:32:53;;;;;;;4.97;1.90;;;31.80;60.90;;;;;;5067571;28;20374;-80
2022/03/18 04:35:21;;;;;;;6.37;2.10;;;32.30;60.20;;;;;;5067034;28;20861;-79
2022/03/18 04:37:48;;;;;;;6.10;2.05;;;32.50;59.10;;;;;;5067502;28;20941;-79
2022/03/18 04:40:15;;;;;;;4.32;1.73;;;33.50;58.00;;;;;;5067125;28;20385;-78
2022/03/18 04:42:44;;;;;;;5.78;2.00;;;34.00;55.40;;;;;;5049288;28;20398;-84
2022/03/18 04:45:12;;;;;;;5.38;1.85;;;33.70;55.60;;;;;;5067599;28;20985;-82
2022/03/18 04:47:40;;;;;;;6.95;2.05;;;33.30;56.30;;;;;;5067385;28;20471;-84
2022/03/18 04:50:07;;;;;;;4.95;2.08;;;33.50;56.10;;;;;;5067161;28;20881;-80
2022/03/18 04:52:34;;;;;;;5.10;1.85;;;34.00;55.60;;;;;;5067065;28;20481;-83
2022/03/18 04:55:01;;;;;;;6.65;2.00;;;35.30;54.30;;;;;;5067074;28;20885;-80
2022/03/18 04:57:28;;;;;;;5.33;1.97;;;36.10;53.20;;;;;;5049120;28;20773;-81
2022/03/18 04:59:56;;;;;;;6.93;1.77;;;37.10;50.90;;;;;;5067309;28;20392;-77
2022/03/18 05:02:24;;;;;;;5.57;2.10;;;37.30;50.20;;;;;;5066956;28;20503;-80
2022/03/18 05:04:53;;;;;;;4.30;2.00;;;36.60;51.00;;;;;;5067284;28;20380;-77
2022/03/18 05:07:20;;;;;;;5.20;1.70;;;35.70;52.60;;;;;;5066761;28;20945;-78
2022/03/18 05:09:48;;;;;;;5.68;2.00;;;35.60;53.30;;;;;;5066921;28;20392;-81
2022/03/18 05:12:17;;;;;;;4.35;1.90;;;34.90;53.80;;;;;;5066886;28;20406;-77
2022/03/18 05:14:44;;;;;;;4.30;1.80;;;34.20;55.60;;;;;;5066831;28;20468;-82
2022/03/18 05:17:11;;;;;;;9.75;2.08;;;33.10;57.10;;;;;;5067076;28;20373;-78
2022/03/18 05:19:39;;;;;;;5.45;2.00;;;32.40;57.60;;;;;;5066982;28;20424;-80
2022/03/18 05:22:07;;;;;;;4.00;1.90;;;31.90;59.50;;;;;;5066779;28;20787;-79
2022/03/18 05:24:35;;;;;;;5.50;2.00;;;31.80;61.10;;;;;;5066776;28;20402;-79
2022/03/18 05:27:03;;;;;;;3.47;1.75;;;31.60;61.20;;;;;;5067011;28;20739;-85
2022/03/18 05:29:31;;;;;;;4.25;1.90;;;32.50;59.80;;;;;;5066904;28;20362;-83
2022/03/18 05:31:58;;;;;;;5.85;2.00;;;33.60;57.30;;;;;;5065756;28;20389;-85
2022/03/18 05:34:26;;;;;;;5.28;1.80;;;34.40;56.50;;;;;;5068737;28;20385;-86
2022/03/18 05:36:53;;;;;;;5.55;1.92;;;34.30;57.00;;;;;;5050387;28;20447;-80
2022/03/18 05:39:20;;;;;;;4.88;2.00;;;34.70;55.40;;;;;;5069176;28;20386;-81
2022/03/18 05:41:48;;;;;;;5.10;1.80;;;35.50;54.60;;;;;;5068548;28;20437;-86
2022/03/18 05:44:17;;;;;;;5.33;2.00;;;36.00;53.60;;;;;;5068313;28;20447;-79
2022/03/18 05:46:44;;;;;;;4.88;2.00;;;36.30;53.20;;;;;;5067098;28;20456;-81
2022/03/18 05:49:11;;;;;;;5.22;2.40;;;37.00;53.50;;;;;;5067171;28;20393;-78
2022/03/18 05:51:38;;;;;;;4.65;2.00;;;37.30;52.60;;;;;;5062912;28;20433;-78
2022/03/18 05:54:05;;;;;;;4.03;2.07;;;37.30;51.20;;;;;;5065097;28;20735;-86
2022/03/18 05:59:19;;;;;;;4.38;1.90;;;36.50;52.30;;;;;;5058911;28;20942;-82
2022/03/18 06:01:46;;;;;;;4.50;1.90;;;35.40;53.10;;;;;;5047039;28;20511;-86
2022/03/18 06:04:14;;;;;;;4.82;1.80;;;34.30;55.80;;;;;;5067964;28;20924;-82
2022/03/18 06:06:43;;;;;;;7.25;2.17;;;33.90;57.20;;;;;;5067725;28;20405;-78
2022/03/18 06:11:56;;;;;;;5.80;2.00;;;34.40;55.90;;;;;;5068254;28;20369;-89
2022/03/18 06:14:25;;;;;;;6.32;2.10;;;34.30;56.10;;;;;;5067198;28;20370;-82
2022/03/18 06:16:54;;;;;;;6.97;2.10;;;33.70;57.00;;;;;;5066554;28;20375;-77
2022/03/18 06:19:22;;;;;;;3.75;1.73;;;32.90;58.70;;;;;;5067008;28;20925;-84
2022/03/18 06:21:49;;;;;;;8.00;2.20;;;32.10;60.30;;;;;;5067688;28;20420;-92
2022/03/18 06:24:17;;;;;;;4.90;1.80;;;31.30;62.50;;;;;;5066797;28;20396;-78
2022/03/18 06:26:45;;;;;;;6.38;1.90;;;30.50;64.50;;;;;;5065746;28;20386;-85
2022/03/18 06:29:12;;;;;;;5.30;1.90;;;29.90;66.40;;;;;;5069862;28;20370;-89
2022/03/18 06:31:39;;;;;;;6.63;2.05;;;29.40;67.70;;;;;;5070330;28;20389;-85
2022/03/18 06:34:08;;;;;;;6.00;1.92;;;29.00;70.50;;;;;;5069899;28;20378;-91
2022/03/18 06:36:36;;;;;;;5.50;2.10;;;28.80;71.20;;;;;;5070232;28;20831;-88
2022/03/18 06:39:04;;;;;;;6.57;2.20;;;28.60;72.90;;;;;;5070092;28;20366;-87
2022/03/18 06:41:32;;;;;;;6.70;2.13;;;28.40;73.80;;;;;;5069373;28;20405;-76
2022/03/18 06:43:59;;;;;;;6.53;2.25;;;28.30;74.50;;;;;;5069664;28;20453;-77
2022/03/18 06:46:26;;;;;;;6.63;2.25;;;28.20;76.00;;;;;;5069857;28;20389;-88
2022/03/18 06:48:54;;;;;;;6.80;2.13;;;28.00;78.00;;;;;;5069172;28;20378;-77
2022/03/18 06:51:21;;;;;;;7.32;2.40;;;27.90;79.50;;;;;;5051793;28;20967;-78
2022/03/18 06:53:48;;;;;;;6.22;2.30;;;27.70;80.70;;;;;;5068949;28;20410;-88
2022/03/18 06:56:15;;;;;;;7.28;2.30;;;27.60;82.60;;;;;;5069364;28;20378;-85
2022/03/18 06:58:43;;;;;;;5.70;2.40;;;27.60;84.00;;;;;;5069512;28;20377;-80
2022/03/18 07:01:10;;;;;;;7.72;2.72;;;27.40;85.90;;;;;;5069676;28;20499;-85
2022/03/18 07:03:37;;;;;;;6.07;2.60;;;27.30;87.40;;;;;;5051031;28;20400;-84
2022/03/18 07:06:06;;;;;;;11.98;3.00;;;27.20;90.20;;;;;;5051889;28;20834;-81
2022/03/18 07:08:36;;;;;;;8.20;3.10;;;27.10;91.00;;;;;;5069690;28;20412;-92
2022/03/18 07:11:04;;;;;;;8.48;3.10;;;27.00;92.00;;;;;;5070259;28;20378;-91
2022/03/18 07:13:31;;;;;;;8.65;3.20;;;26.80;93.20;;;;;;5071024;28;20420;-79
2022/03/18 07:17:54;;;;;;;6.10;3.08;;;26.70;94.40;;;;;;5070501;28;20379;-90
2022/03/18 07:18:45;;;;;;;8.70;3.50;;;26.50;95.40;;;;;;5050023;28;20383;-79
2022/03/18 07:21:12;;;;;;;7.70;3.30;;;26.30;96.60;;;;;;5051569;28;20393;-80
2022/03/18 07:23:39;;;;;;;8.13;3.38;;;26.20;97.70;;;;;;5071030;28;20869;-91
2022/03/18 07:26:06;;;;;;;7.63;3.28;;;26.10;98.80;;;;;;5070160;28;20371;-77
2022/03/18 07:28:33;;;;;;;7.30;3.43;;;26.00;99.70;;;;;;5069081;28;20397;-88
2022/03/18 07:31:00;;;;;;;8.43;3.40;;;25.90;99.90;;;;;;5068106;28;20861;-77
2022/03/18 07:33:27;;;;;;;8.35;3.08;;;25.80;99.90;;;;;;5070331;28;20869;-84
2022/03/18 07:35:54;;;;;;;7.47;3.28;;;25.70;99.90;;;;;;5069074;28;20861;-90
2022/03/18 07:38:21;;;;;;;9.35;3.20;;;25.60;99.90;;;;;;5067566;28;20382;-78
2022/03/18 07:40:48;;;;;;;7.72;3.15;;;25.50;99.90;;;;;;5068736;28;20390;-82
2022/03/18 07:43:17;;;;;;;7.45;3.10;;;25.40;99.90;;;;;;5069832;28;20413;-86
2022/03/18 07:45:44;;;;;;;8.43;3.30;;;25.20;99.90;;;;;;5069717;28;20390;-85
2022/03/18 07:48:11;;;;;;;7.07;3.00;;;25.10;99.90;;;;;;5053927;28;20562;-78
2022/03/18 07:50:39;;;;;;;10.15;3.80;;;25.10;99.90;;;;;;5062858;28;20879;-78
2022/03/18 07:53:09;;;;;;;9.57;3.70;;;25.00;99.90;;;;;;5060539;28;20386;-81
2022/03/18 07:55:38;;;;;;;9.45;3.85;;;25.10;99.90;;;;;;5070578;28;20466;-82
2022/03/18 07:58:06;;;;;;;8.97;3.87;;;24.70;99.90;;;;;;5070306;28;20546;-84
2022/03/18 08:00:36;;;;;;;9.98;4.20;;;24.70;99.90;;;;;;5070308;28;20378;-88
2022/03/18 08:03:04;;;;;;;10.03;4.23;;;24.60;99.90;;;;;;5069788;28;20385;-80
2022/03/18 08:05:31;;;;;;;8.48;4.13;;;24.50;99.90;;;;;;5069262;28;20738;-81
2022/03/18 08:07:59;;;;;;;9.68;3.97;;;24.40;99.90;;;;;;5069688;28;20382;-83
2022/03/18 08:10:26;;;;;;;10.45;3.80;;;24.40;99.90;;;;;;5070817;28;20366;-86
2022/03/18 08:12:53;;;;;;;8.35;3.58;;;24.30;99.90;;;;;;5068603;28;20374;-84
2022/03/18 08:15:21;;;;;;;10.13;3.80;;;24.30;99.90;;;;;;5067956;28;20896;-77
2022/03/18 08:17:54;;;;;;;12.18;4.60;;;24.20;99.90;;;;;;5068210;28;20370;-84
2022/03/18 08:20:22;;;;;;;10.25;4.10;;;24.10;99.90;;;;;;5065676;28;20385;-78
2022/03/18 08:22:50;;;;;;;9.83;4.03;;;24.10;99.90;;;;;;5060714;28;20450;-90
2022/03/18 08:25:17;;;;;;;7.97;3.70;;;24.00;99.90;;;;;;5067879;28;20382;-84
2022/03/18 08:27:49;;;;;;;7.88;4.03;;;23.90;99.90;;;;;;5070403;28;20749;-83
2022/03/18 08:30:16;;;;;;;8.40;3.80;;;23.90;99.90;;;;;;5068392;28;20377;-86
2022/03/18 08:32:43;;;;;;;9.90;3.80;;;23.90;99.90;;;;;;5067881;28;20432;-81
2022/03/18 08:35:10;;;;;;;9.88;4.32;;;23.80;99.90;;;;;;5070124;28;20751;-85
2022/03/18 08:40:32;;;;;;;11.93;4.50;;;23.80;99.90;;;;;;5067772;28;20746;-85
2022/03/18 08:43:04;;;;;;;7.82;4.22;;;23.80;99.90;;;;;;5067721;28;20398;-86
2022/03/18 08:45:31;;;;;;;8.75;4.18;;;23.90;99.90;;;;;;5047315;28;20383;-89
2022/03/18 08:47:59;;;;;;;17.60;5.15;;;23.90;99.90;;;;;;5039314;28;20524;-83
2022/03/18 08:50:27;;;;;;;8.50;4.22;;;23.90;99.90;;;;;;5065332;28;20382;-85
2022/03/18 08:52:56;;;;;;;10.55;4.53;;;24.00;99.90;;;;;;5066980;28;20433;-80
2022/03/18 08:55:24;;;;;;;7.00;3.55;;;24.00;99.90;;;;;;5067143;28;20422;-79
2022/03/18 08:57:51;;;;;;;7.45;3.50;;;23.90;99.90;;;;;;5068050;28;20746;-91
2022/03/18 09:00:19;;;;;;;9.20;3.75;;;23.90;99.90;;;;;;5067571;28;20374;-78
2022/03/18 09:02:47;;;;;;;8.30;3.70;;;23.90;99.90;;;;;;5067841;28;20434;-88
2022/03/18 09:05:15;;;;;;;8.82;3.90;;;23.90;99.90;;;;;;5053681;28;20389;-78
2022/03/18 09:07:42;;;;;;;8.00;3.00;;;23.80;99.90;;;;;;5067810;28;20460;-89
2022/03/18 09:10:12;;;;;;;3.33;1.95;;;23.70;99.90;;;;;;5061740;28;20380;-86
2022/03/18 09:12:49;;;;;;;3.00;1.80;;;23.60;99.90;;;;;;5070457;28;20370;-78
2022/03/18 09:15:19;;;;;;;5.07;2.17;;;23.40;99.90;;;;;;5069169;28;20381;-92
2022/03/18 09:17:46;;;;;;;3.67;2.10;;;23.20;99.90;;;;;;5086883;28;20432;-85
2022/03/18 09:20:13;;;;;;;2.28;1.90;;;23.00;99.90;;;;;;5058964;28;20743;-80
2022/03/18 09:22:40;;;;;;;2.80;1.80;;;22.90;99.90;;;;;;5068027;28;20445;-88
2022/03/18 09:25:08;;;;;;;4.30;1.95;;;22.80;99.90;;;;;;5068738;28;20872;-88
2022/03/18 09:27:35;;;;;;;2.65;1.80;;;22.80;99.90;;;;;;5068852;28;20377;-82
2022/03/18 09:30:06;;;;;;;4.15;1.95;;;22.70;99.90;;;;;;5072399;28;20382;-77
2022/03/18 09:32:35;;;;;;;2.45;1.88;;;22.60;99.90;;;;;;5070944;28;20415;-80
2022/03/18 09:35:04;;;;;;;2.95;2.03;;;22.60;99.90;;;;;;5066799;28;20374;-79
2022/03/18 09:37:31;;;;;;;2.92;1.88;;;22.50;99.90;;;;;;5052686;28;20479;-78
2022/03/18 09:40:01;;;;;;;2.90;1.95;;;22.50;99.90;;;;;;5066448;28;20374;-77
2022/03/18 09:42:28;;;;;;;4.13;2.15;;;22.50;99.90;;;;;;5065971;28;20770;-80
2022/03/18 09:44:55;;;;;;;3.45;2.03;;;22.40;99.90;;;;;;5053280;28;20453;-77
2022/03/18 09:47:22;;;;;;;3.72;2.67;;;22.50;99.90;;;;;;5046254;28;20380;-78
2022/03/18 09:49:49;;;;;;;5.25;2.80;;;22.40;99.90;;;;;;5048837;28;20422;-77
2022/03/18 09:52:18;;;;;;;6.40;5.70;;;22.30;99.90;;;;;;5048737;28;20760;-77
2022/03/18 09:54:45;;;;;;;9.15;7.25;;;22.20;99.90;;;;;;5066110;28;20854;-77
2022/03/18 09:57:12;;;;;;;8.82;6.20;;;22.20;99.90;;;;;;5066116;28;20378;-81
2022/03/18 09:59:39;;;;;;;6.93;4.30;;;22.20;99.90;;;;;;5063159;28;20496;-81
2022/03/18 10:02:22;;;;;;;5.90;3.90;;;22.10;99.90;;;;;;5048263;28;20397;-78
2022/03/18 10:04:57;;;;;;;6.68;3.20;;;22.10;99.90;;;;;;5068353;28;20889;-77
2022/03/18 10:07:25;;;;;;;6.50;2.80;;;22.10;99.90;;;;;;5066630;28;20373;-77
2022/03/18 10:10:14;;;;;;;5.55;2.80;;;22.00;99.90;;;;;;5070360;28;20461;-77
2022/03/18 10:12:45;;;;;;;6.28;2.92;;;22.00;99.90;;;;;;5069999;28;20800;-77
2022/03/18 10:15:30;;;;;;;5.55;2.80;;;22.00;99.90;;;;;;5055323;28;20409;-83
2022/03/18 10:17:58;;;;;;;7.00;3.33;;;22.00;99.90;;;;;;5076121;28;20370;-79
2022/03/18 10:20:40;;;;;;;6.57;3.10;;;22.00;99.90;;;;;;5077992;28;20397;-80
2022/03/18 10:23:15;;;;;;;6.28;3.00;;;21.90;99.90;;;;;;5076888;28;20386;-84
2022/03/18 10:25:56;;;;;;;6.00;3.33;;;22.00;99.90;;;;;;5071538;28;20394;-79
2022/03/18 10:28:37;;;;;;;6.70;3.30;;;22.00;99.90;;;;;;5070673;28;20447;-85
2022/03/18 10:31:21;;;;;;;6.38;3.00;;;22.00;99.90;;;;;;5051481;28;20376;-85
2022/03/18 10:39:26;;;;;;;7.45;3.95;;;22.20;99.90;;;;;;5068108;28;20403;-87
2022/03/18 10:41:54;;;;;;;11.93;6.22;;;22.20;99.90;;;;;;5070524;28;20433;-80
2022/03/18 10:44:21;;;;;;;11.35;6.68;;;22.20;99.90;;;;;;5070347;28;20393;-86
2022/03/18 10:46:49;;;;;;;8.82;4.47;;;22.30;99.90;;;;;;5070375;28;20428;-77
2022/03/18 10:49:17;;;;;;;8.23;4.05;;;22.30;99.90;;;;;;5070846;28;20386;-78
2022/03/18 10:51:44;;;;;;;8.25;3.30;;;22.30;99.90;;;;;;5069022;28;20414;-78
2022/03/18 10:54:11;;;;;;;10.27;3.93;;;22.30;99.90;;;;;;5069599;28;20374;-78
2022/03/18 10:56:58;;;;;;;10.05;3.72;;;22.30;99.90;;;;;;5069604;28;20924;-88
2022/03/18 10:59:27;;;;;;;11.88;3.72;;;22.20;99.90;;;;;;5071761;28;20473;-88
2022/03/18 11:02:00;;;;;;;10.87;3.60;;;22.20;99.90;;;;;;5063374;28;20401;-82
2022/03/18 11:04:27;;;;;;;8.55;3.28;;;22.10;99.90;;;;;;5070757;28;20370;-77
2022/03/18 11:12:33;;;;;;;10.68;3.90;;;22.00;99.90;;;;;;5069776;28;20397;-76
2022/03/18 11:15:03;;;;;;;10.57;4.20;;;21.90;99.90;;;;;;5049887;28;20372;-80
2022/03/18 11:17:30;;;;;;;9.02;3.85;;;21.80;99.90;;;;;;5048383;28;20388;-77
2022/03/18 11:20:01;;;;;;;11.63;4.65;;;21.70;99.90;;;;;;5053948;28;20770;-83
2022/03/18 11:22:30;;;;;;;8.73;3.83;;;21.60;99.90;;;;;;5069702;28;20398;-81
2022/03/18 11:24:58;;;;;;;7.90;4.00;;;21.50;99.90;;;;;;5069171;28;20772;-78
2022/03/18 11:27:25;;;;;;;12.20;3.95;;;21.40;99.90;;;;;;5050984;28;20456;-77
2022/03/18 11:30:18;;;;;;;8.70;4.15;;;21.40;99.90;;;;;;5069408;28;20886;-84
2022/03/18 11:33:13;;;;;;;7.93;3.90;;;21.30;99.90;;;;;;5069130;28;20385;-85
2022/03/18 11:35:54;;;;;;;8.13;4.20;;;21.30;99.90;;;;;;5066700;28;20383;-90
2022/03/18 11:38:49;;;;;;;12.68;4.60;;;21.20;99.90;;;;;;5068456;28;20719;-78
2022/03/18 11:41:19;;;;;;;8.20;3.95;;;21.20;99.90;;;;;;5002128;28;20402;-89
2022/03/18 11:43:46;;;;;;;11.85;4.30;;;21.20;99.90;;;;;;5007626;28;20399;-84
2022/03/18 11:48:54;;;;;;;24.30;4.75;;;21.40;99.90;;;;;;5008246;28;20382;-80
2022/03/18 11:51:33;;;;;;;9.43;4.60;;;21.40;99.90;;;;;;5006713;28;20443;-78
2022/03/18 11:54:12;;;;;;;10.57;4.57;;;21.30;99.90;;;;;;5006646;28;20418;-77
2022/03/18 11:56:52;;;;;;;8.68;4.43;;;21.30;99.90;;;;;;5005875;28;20391;-79
2022/03/18 11:59:28;;;;;;;8.77;4.57;;;21.30;99.90;;;;;;4991688;28;20407;-88
2022/03/18 12:01:56;;;;;;;8.93;4.50;;;21.30;99.90;;;;;;5007296;28;20406;-90
2022/03/18 12:04:40;;;;;;;10.63;4.40;;;21.40;99.90;;;;;;5007297;28;20390;-78
2022/03/18 12:07:30;;;;;;;9.02;4.50;;;21.40;99.90;;;;;;5006990;28;20387;-87
2022/03/18 12:10:05;;;;;;;9.05;4.15;;;21.50;99.90;;;;;;5007638;28;20391;-79
2022/03/18 12:12:40;;;;;;;9.70;4.43;;;21.50;99.90;;;;;;5006846;28;20446;-82
2022/03/18 12:15:12;;;;;;;13.75;4.90;;;21.50;99.90;;;;;;5006556;28;20391;-87
2022/03/18 12:17:46;;;;;;;13.90;5.10;;;21.50;99.90;;;;;;5019985;28;20388;-83
2022/03/18 12:20:20;;;;;;;11.07;4.85;;;21.40;99.90;;;;;;5069536;28;20378;-86
2022/03/18 12:22:49;;;;;;;11.77;4.90;;;21.40;99.90;;;;;;5068642;28;20458;-85
2022/03/18 12:25:17;;;;;;;11.63;4.53;;;21.50;99.90;;;;;;5067298;28;20410;-86
2022/03/18 12:27:44;;;;;;;11.65;4.43;;;21.50;99.90;;;;;;5067830;28;20391;-87
2022/03/18 12:30:20;;;;;;;15.43;4.78;;;21.50;99.90;;;;;;5066321;28;20375;-79
2022/03/18 12:32:58;;;;;;;14.65;4.70;;;21.50;99.90;;;;;;5063514;28;20435;-82
2022/03/18 12:35:29;;;;;;;12.65;4.88;;;21.50;99.90;;;;;;5068391;28;20381;-77
2022/03/18 12:38:07;;;;;;;16.47;5.17;;;21.50;99.90;;;;;;5068507;28;20722;-83
2022/03/18 12:40:40;;;;;;;17.65;5.20;;;21.50;99.90;;;;;;5067274;28;20750;-86
2022/03/18 12:43:08;;;;;;;15.82;5.10;;;21.40;99.90;;;;;;5042724;28;20413;-76
2022/03/18 12:45:42;;;;;;;14.70;5.00;;;21.40;99.90;;;;;;5067891;28;20374;-85
2022/03/18 12:48:13;;;;;;;16.70;5.00;;;21.40;99.90;;;;;;5051035;28;20428;-87
2022/03/18 12:50:43;;;;;;;12.80;4.70;;;21.40;99.90;;;;;;5068633;28;20370;-78
2022/03/18 12:53:17;;;;;;;17.08;4.90;;;21.40;99.90;;;;;;5071500;28;20443;-77
2022/03/18 12:55:46;;;;;;;16.10;5.18;;;21.50;99.90;;;;;;5072741;28;20389;-87
2022/03/18 12:58:14;;;;;;;15.07;4.50;;;21.50;99.90;;;;;;5065552;28;20376;-78
2022/03/18 13:00:43;;;;;;;17.20;4.82;;;21.50;99.90;;;;;;5049175;28;20376;-84
2022/03/18 13:03:23;;;;;;;18.60;7.07;;;21.40;99.90;;;;;;5048168;28;20403;-84
2022/03/18 13:05:52;;;;;;;15.43;6.22;;;21.50;99.90;;;;;;5037827;28;20437;-77
2022/03/18 13:08:23;;;;;;;16.85;6.43;;;21.40;99.90;;;;;;5047691;28;20892;-79
2022/03/18 13:10:58;;;;;;;15.63;5.65;;;21.40;99.90;;;;;;5047678;28;20384;-86
2022/03/18 13:13:29;;;;;;;14.27;5.90;;;21.30;99.90;;;;;;5047456;28;20380;-83
2022/03/18 13:16:02;;;;;;;15.40;5.20;;;21.20;99.90;;;;;;5047684;28;20378;-78
2022/03/18 13:18:38;;;;;;;12.27;5.00;;;21.20;99.90;;;;;;5047301;28;20439;-77
2022/03/18 13:21:09;;;;;;;14.77;6.68;;;21.20;99.90;;;;;;5047103;28;21128;-88
2022/03/18 13:23:40;;;;;;;13.60;7.60;;;21.20;99.90;;;;;;5027584;28;20461;-77